Time;durP1;ratioP1;P1;durP2;ratioP2;P2;SDS_P1;SDS_P2;PMS_P1;PMS_P2;Temp;Humidity;BMP_temperature;BMP_pressure;BME280_temperature;BME280_humidity;BME280_pressure;Samples;Min_cycle;Max_cycle;Signal;HPM_P1;HPM_P2
2021/08/16 00:02:16;;;;;;;;;;;24.10;59.80;;;;;;5060828;28;20625;-60
2021/08/16 00:04:42;;;;;;;;;;;24.10;59.70;;;;;;5059959;28;19916;-62
2021/08/16 00:07:07;;;;;;;;;;;24.00;59.50;;;;;;5060700;28;19913;-62
2021/08/16 00:09:33;;;;;;;;;;;24.10;59.80;;;;;;5059058;28;19916;-62
2021/08/16 00:11:58;;;;;;;;;;;24.00;59.70;;;;;;5042460;28;19978;-62
2021/08/16 00:14:24;;;;;;;;;;;24.00;59.80;;;;;;5041105;28;19927;-62
2021/08/16 00:16:49;;;;;;;;;;;24.00;59.60;;;;;;5040109;28;20400;-62
2021/08/16 00:19:14;;;;;;;;;;;24.00;59.70;;;;;;5040697;28;19913;-62
2021/08/16 00:21:40;;;;;;;;;;;24.00;59.70;;;;;;5040338;28;19920;-62
2021/08/16 00:24:05;;;;;;;;;;;24.00;59.60;;;;;;5040582;28;19924;-62
2021/08/16 00:26:31;;;;;;;;;;;24.00;59.70;;;;;;5040650;28;20286;-60
2021/08/16 00:28:59;;;;;;;;;;;24.00;59.60;;;;;;5040212;28;19913;-62
2021/08/16 00:31:25;;;;;;;;;;;24.00;59.60;;;;;;5059005;28;19923;-62
2021/08/16 00:33:51;;;;;;;;;;;23.90;59.60;;;;;;5059990;28;19916;-61
2021/08/16 00:36:16;;;;;;;;;;;23.90;59.60;;;;;;5060615;28;19924;-62
2021/08/16 00:38:41;;;;;;;;;;;23.90;59.50;;;;;;5060189;28;19912;-61
2021/08/16 00:41:07;;;;;;;;;;;23.90;59.70;;;;;;5059410;28;19928;-63
2021/08/16 00:43:32;;;;;;;;;;;23.90;59.70;;;;;;5064575;28;20301;-62
2021/08/16 00:45:58;;;;;;;;;;;23.90;59.70;;;;;;5064214;28;19923;-60
2021/08/16 00:48:23;;;;;;;;;;;23.90;59.70;;;;;;5064123;28;20309;-59
2021/08/16 00:50:49;;;;;;;;;;;23.90;59.70;;;;;;5063895;28;19921;-62
2021/08/16 00:53:15;;;;;;;;;;;23.90;59.70;;;;;;5062878;28;19926;-58
2021/08/16 00:55:40;;;;;;;;;;;23.90;59.70;;;;;;5062733;28;19942;-62
2021/08/16 00:58:05;;;;;;;;;;;23.90;59.60;;;;;;5064140;28;19913;-62
2021/08/16 01:00:31;;;;;;;;;;;23.90;59.60;;;;;;5062599;28;20432;-62
2021/08/16 01:02:56;;;;;;;;;;;23.90;59.60;;;;;;5064755;28;19913;-62
2021/08/16 01:05:22;;;;;;;;;;;23.90;59.60;;;;;;5063259;28;19913;-62
2021/08/16 01:07:47;;;;;;;;;;;23.80;59.40;;;;;;5063314;28;19920;-62
2021/08/16 01:10:13;;;;;;;;;;;23.80;59.60;;;;;;5063746;28;20436;-61
2021/08/16 01:12:39;;;;;;;;;;;23.80;59.50;;;;;;5062978;28;19923;-62
2021/08/16 01:15:06;;;;;;;;;;;23.80;59.50;;;;;;5063775;28;20716;-62
2021/08/16 01:17:32;;;;;;;;;;;23.80;59.50;;;;;;5063856;28;19947;-63
2021/08/16 01:19:58;;;;;;;;;;;23.80;59.60;;;;;;5061816;28;20423;-63
2021/08/16 01:22:23;;;;;;;;;;;23.80;59.50;;;;;;5062698;28;19927;-61
2021/08/16 01:24:49;;;;;;;;;;;23.80;59.50;;;;;;5061853;28;19931;-62
2021/08/16 01:27:14;;;;;;;;;;;23.80;59.40;;;;;;5058308;28;20425;-62
2021/08/16 01:29:40;;;;;;;;;;;23.80;59.30;;;;;;5058618;28;19920;-62
2021/08/16 01:32:06;;;;;;;;;;;23.80;59.40;;;;;;5053531;28;19920;-60
2021/08/16 01:34:31;;;;;;;;;;;23.80;59.40;;;;;;5062700;28;20399;-62
2021/08/16 01:36:57;;;;;;;;;;;23.80;59.40;;;;;;5058178;28;19939;-62
2021/08/16 01:39:23;;;;;;;;;;;23.80;59.40;;;;;;5053360;28;19916;-61
2021/08/16 01:41:48;;;;;;;;;;;23.80;59.40;;;;;;5060459;28;20386;-62
2021/08/16 01:44:17;;;;;;;;;;;23.70;59.40;;;;;;5059652;28;19951;-62
2021/08/16 01:46:42;;;;;;;;;;;23.80;59.40;;;;;;5060310;28;20301;-61
2021/08/16 01:49:08;;;;;;;;;;;23.70;59.40;;;;;;5058413;28;19923;-61
2021/08/16 01:51:34;;;;;;;;;;;23.70;59.40;;;;;;5059507;28;19944;-62
2021/08/16 01:54:00;;;;;;;;;;;23.70;59.40;;;;;;5059316;28;19916;-61
2021/08/16 01:56:25;;;;;;;;;;;23.70;59.50;;;;;;5066276;22;20791;-70
2021/08/16 01:58:51;;;;;;;;;;;23.70;59.40;;;;;;5048797;28;19917;-70
2021/08/16 02:01:16;;;;;;;;;;;23.70;59.40;;;;;;5059514;28;19924;-70
2021/08/16 02:03:41;;;;;;;;;;;23.70;59.50;;;;;;5064085;28;19913;-70
2021/08/16 02:06:07;;;;;;;;;;;23.70;59.30;;;;;;5052528;28;19944;-70
2021/08/16 02:08:32;;;;;;;;;;;23.70;59.50;;;;;;5044964;28;19916;-66
2021/08/16 02:10:58;;;;;;;;;;;23.70;59.40;;;;;;5046023;28;19920;-70
2021/08/16 02:13:23;;;;;;;;;;;23.60;59.00;;;;;;5046335;28;20377;-70
2021/08/16 02:15:49;;;;;;;;;;;23.60;59.30;;;;;;5046108;28;20005;-70
2021/08/16 02:18:14;;;;;;;;;;;23.60;59.40;;;;;;5047326;28;19951;-70
2021/08/16 02:20:40;;;;;;;;;;;23.60;59.10;;;;;;5046252;28;20025;-70
2021/08/16 02:23:05;;;;;;;;;;;23.60;59.30;;;;;;5046876;28;19971;-66
2021/08/16 02:25:30;;;;;;;;;;;23.60;59.30;;;;;;5046652;28;19913;-64
2021/08/16 02:27:56;;;;;;;;;;;23.60;60.00;;;;;;5046590;28;19913;-70
2021/08/16 02:30:21;;;;;;;;;;;23.60;59.30;;;;;;5045195;28;19967;-70
2021/08/16 02:32:47;;;;;;;;;;;23.60;59.40;;;;;;5046977;28;19941;-70
2021/08/16 02:35:12;;;;;;;;;;;23.60;59.40;;;;;;5046699;28;20437;-64
2021/08/16 02:37:38;;;;;;;;;;;23.60;59.50;;;;;;5044378;28;19913;-69
2021/08/16 02:40:04;;;;;;;;;;;23.60;59.50;;;;;;5046466;28;20004;-69
2021/08/16 02:42:29;;;;;;;;;;;23.60;59.50;;;;;;5027398;28;19992;-69
2021/08/16 02:44:54;;;;;;;;;;;23.70;59.70;;;;;;5044299;28;21236;-69
2021/08/16 02:47:21;;;;;;;;;;;23.70;59.80;;;;;;5046899;28;19982;-70
2021/08/16 02:49:48;;;;;;;;;;;23.70;59.50;;;;;;5044577;28;20286;-71
2021/08/16 02:52:13;;;;;;;;;;;23.70;59.60;;;;;;5045087;28;19913;-70
2021/08/16 02:54:39;;;;;;;;;;;23.70;59.50;;;;;;5039450;28;19920;-64
2021/08/16 02:57:05;;;;;;;;;;;23.70;59.80;;;;;;5044999;28;19971;-65
2021/08/16 02:59:30;;;;;;;;;;;23.70;59.60;;;;;;5045067;28;20750;-70
2021/08/16 03:01:56;;;;;;;;;;;23.70;59.70;;;;;;5045656;28;19994;-65
2021/08/16 03:04:21;;;;;;;;;;;23.70;59.50;;;;;;5043366;28;20376;-70
2021/08/16 03:06:47;;;;;;;;;;;23.70;59.30;;;;;;5042340;28;19913;-70
2021/08/16 03:09:12;;;;;;;;;;;23.70;59.40;;;;;;5045511;28;19921;-69
2021/08/16 03:11:37;;;;;;;;;;;23.60;59.10;;;;;;5045111;28;20295;-71
2021/08/16 03:14:03;;;;;;;;;;;23.60;59.10;;;;;;5045065;28;19920;-66
2021/08/16 03:16:28;;;;;;;;;;;23.60;59.40;;;;;;5045381;28;20131;-70
2021/08/16 03:18:54;;;;;;;;;;;23.70;59.70;;;;;;5044603;28;19916;-70
2021/08/16 03:21:19;;;;;;;;;;;23.60;59.50;;;;;;5044711;28;19924;-70
2021/08/16 03:23:45;;;;;;;;;;;23.60;59.50;;;;;;5044598;28;19939;-69
2021/08/16 03:26:10;;;;;;;;;;;23.60;59.80;;;;;;5045438;28;20410;-64
2021/08/16 03:28:36;;;;;;;;;;;23.60;59.70;;;;;;5044060;28;19952;-70
2021/08/16 03:31:02;;;;;;;;;;;23.60;59.70;;;;;;5044854;28;19990;-69
2021/08/16 03:33:27;;;;;;;;;;;23.60;59.60;;;;;;5045219;28;19921;-64
2021/08/16 03:35:53;;;;;;;;;;;23.60;59.80;;;;;;5045021;28;19987;-70
2021/08/16 03:38:18;;;;;;;;;;;23.60;59.90;;;;;;5047019;28;19913;-69
2021/08/16 03:40:43;;;;;;;;;;;23.60;60.00;;;;;;5046259;28;19917;-70
2021/08/16 03:43:09;;;;;;;;;;;23.60;59.80;;;;;;5046375;28;19920;-70
2021/08/16 03:45:35;;;;;;;;;;;23.60;60.00;;;;;;5033932;28;19917;-66
2021/08/16 03:48:00;;;;;;;;;;;23.50;60.10;;;;;;5043142;28;19970;-71
2021/08/16 03:50:26;;;;;;;;;;;23.50;60.30;;;;;;5042750;28;19964;-67
2021/08/16 03:52:51;;;;;;;;;;;23.60;60.20;;;;;;5043413;28;19913;-69
2021/08/16 03:55:17;;;;;;;;;;;23.50;60.20;;;;;;5044328;28;20092;-69
2021/08/16 03:57:42;;;;;;;;;;;23.50;60.20;;;;;;5044891;28;19920;-69
2021/08/16 04:00:08;;;;;;;;;;;23.50;60.30;;;;;;5044794;28;19913;-69
2021/08/16 04:02:34;;;;;;;;;;;23.60;60.40;;;;;;5045150;28;19921;-67
2021/08/16 04:04:59;;;;;;;;;;;23.60;60.30;;;;;;5045451;28;19924;-66
2021/08/16 04:07:24;;;;;;;;;;;23.50;60.30;;;;;;5046252;28;20066;-69
2021/08/16 04:09:50;;;;;;;;;;;23.50;60.40;;;;;;5044133;28;20547;-70
2021/08/16 04:12:15;;;;;;;;;;;23.50;60.30;;;;;;5039543;28;19917;-70
2021/08/16 04:14:41;;;;;;;;;;;23.50;60.50;;;;;;5044115;28;20407;-70
2021/08/16 04:17:06;;;;;;;;;;;23.50;60.60;;;;;;5045788;28;20298;-68
2021/08/16 04:19:32;;;;;;;;;;;23.50;60.60;;;;;;5048956;28;19939;-69
2021/08/16 04:21:57;;;;;;;;;;;23.50;60.70;;;;;;5047649;28;19929;-69
2021/08/16 04:24:23;;;;;;;;;;;23.50;60.80;;;;;;5047948;28;19927;-69
2021/08/16 04:26:48;;;;;;;;;;;23.40;61.10;;;;;;5047240;28;20294;-69
2021/08/16 04:29:13;;;;;;;;;;;23.50;61.20;;;;;;5048225;28;19931;-65
2021/08/16 04:31:39;;;;;;;;;;;23.50;61.10;;;;;;5045721;28;19916;-67
2021/08/16 04:34:04;;;;;;;;;;;23.40;61.70;;;;;;5048414;28;20434;-70
2021/08/16 04:36:30;;;;;;;;;;;23.50;61.50;;;;;;5046369;28;19919;-70
2021/08/16 04:38:55;;;;;;;;;;;23.50;61.60;;;;;;5043827;28;19917;-68
2021/08/16 04:41:21;;;;;;;;;;;23.50;61.60;;;;;;5045752;28;19963;-68
2021/08/16 04:43:46;;;;;;;;;;;23.50;61.80;;;;;;5027695;28;19924;-69
2021/08/16 04:46:12;;;;;;;;;;;23.50;61.70;;;;;;5057837;28;20382;-69
2021/08/16 04:48:38;;;;;;;;;;;23.50;61.80;;;;;;5042980;28;19924;-71
2021/08/16 04:51:03;;;;;;;;;;;23.50;61.70;;;;;;5034116;28;19916;-69
2021/08/16 04:53:29;;;;;;;;;;;23.50;62.00;;;;;;5054013;28;20330;-69
2021/08/16 04:55:54;;;;;;;;;;;23.50;62.30;;;;;;5036352;28;19924;-69
2021/08/16 04:58:20;;;;;;;;;;;23.50;62.60;;;;;;5043701;28;19925;-67
2021/08/16 05:00:45;;;;;;;;;;;23.40;62.80;;;;;;5041908;28;19916;-67
2021/08/16 05:03:11;;;;;;;;;;;23.40;62.90;;;;;;5043936;28;20474;-68
2021/08/16 05:05:36;;;;;;;;;;;23.40;62.70;;;;;;5038809;28;20422;-68
2021/08/16 05:08:02;;;;;;;;;;;23.40;62.80;;;;;;5043222;28;19967;-67
2021/08/16 05:10:28;;;;;;;;;;;23.40;62.90;;;;;;5042989;28;19966;-70
2021/08/16 05:12:54;;;;;;;;;;;23.40;62.90;;;;;;5042892;28;19921;-68
2021/08/16 05:15:20;;;;;;;;;;;23.40;62.90;;;;;;5044068;28;20444;-69
2021/08/16 05:17:45;;;;;;;;;;;23.40;63.20;;;;;;5044458;28;20020;-69
2021/08/16 05:20:11;;;;;;;;;;;23.40;62.90;;;;;;5046280;28;19913;-68
2021/08/16 05:22:37;;;;;;;;;;;23.40;62.90;;;;;;5043687;28;19929;-70
2021/08/16 05:25:04;;;;;;;;;;;23.40;63.00;;;;;;5042660;28;20051;-70
2021/08/16 05:27:29;;;;;;;;;;;23.50;63.40;;;;;;5042491;28;20325;-69
2021/08/16 05:29:55;;;;;;;;;;;23.50;63.30;;;;;;5043736;28;20418;-70
2021/08/16 05:32:20;;;;;;;;;;;23.50;63.30;;;;;;5044061;28;19917;-70
2021/08/16 05:34:45;;;;;;;;;;;23.50;63.30;;;;;;5042925;28;19932;-69
2021/08/16 05:37:11;;;;;;;;;;;23.50;63.40;;;;;;5044282;28;20423;-68
2021/08/16 05:39:36;;;;;;;;;;;23.50;63.30;;;;;;5042763;28;19917;-69
2021/08/16 05:42:02;;;;;;;;;;;23.50;63.60;;;;;;5034909;28;19982;-65
2021/08/16 05:44:28;;;;;;;;;;;23.60;63.50;;;;;;5043553;28;19920;-65
2021/08/16 05:46:53;;;;;;;;;;;23.50;63.70;;;;;;5043577;28;20031;-68
2021/08/16 05:49:19;;;;;;;;;;;23.50;63.70;;;;;;5042542;28;19917;-69
2021/08/16 05:51:44;;;;;;;;;;;23.50;63.70;;;;;;5044293;28;20453;-69
2021/08/16 05:54:09;;;;;;;;;;;23.50;63.90;;;;;;5044618;28;19916;-67
2021/08/16 05:56:35;;;;;;;;;;;23.60;64.00;;;;;;5045029;28;19920;-68
2021/08/16 05:59:00;;;;;;;;;;;23.60;63.90;;;;;;5044535;28;19921;-69
2021/08/16 06:01:26;;;;;;;;;;;23.50;64.10;;;;;;5046364;28;19940;-68
2021/08/16 06:03:51;;;;;;;;;;;23.60;64.10;;;;;;5043061;28;19913;-69
2021/08/16 06:06:17;;;;;;;;;;;23.50;64.20;;;;;;5043174;28;19913;-69
2021/08/16 06:08:42;;;;;;;;;;;23.60;64.30;;;;;;5042995;28;19913;-70
2021/08/16 06:11:08;;;;;;;;;;;23.60;64.50;;;;;;5043363;28;19940;-70
2021/08/16 06:13:33;;;;;;;;;;;23.60;64.70;;;;;;5042546;28;19921;-65
2021/08/16 06:15:59;;;;;;;;;;;23.50;64.80;;;;;;5042971;28;19959;-68
2021/08/16 06:18:24;;;;;;;;;;;23.60;65.00;;;;;;5042400;28;19917;-67
2021/08/16 06:20:50;;;;;;;;;;;23.60;65.30;;;;;;5042424;28;19920;-64
2021/08/16 06:23:15;;;;;;;;;;;23.60;65.70;;;;;;5042742;28;19923;-70
2021/08/16 06:25:40;;;;;;;;;;;23.50;65.80;;;;;;5043269;28;19960;-68
2021/08/16 06:28:06;;;;;;;;;;;23.50;65.70;;;;;;5041887;28;19920;-68
2021/08/16 06:30:31;;;;;;;;;;;23.50;65.90;;;;;;5043666;28;19917;-68
2021/08/16 06:32:57;;;;;;;;;;;23.50;65.90;;;;;;5042231;28;19912;-69
2021/08/16 06:35:23;;;;;;;;;;;23.50;66.10;;;;;;5044281;28;19925;-69
2021/08/16 06:37:48;;;;;;;;;;;23.50;66.10;;;;;;5043444;28;20004;-69
2021/08/16 06:40:14;;;;;;;;;;;23.50;66.10;;;;;;5044002;28;19913;-69
2021/08/16 06:42:39;;;;;;;;;;;23.50;66.30;;;;;;5045306;28;20600;-69
2021/08/16 06:45:05;;;;;;;;;;;23.50;66.50;;;;;;5045325;28;19923;-70
2021/08/16 06:47:30;;;;;;;;;;;23.50;66.70;;;;;;5044013;28;19913;-68
2021/08/16 06:49:56;;;;;;;;;;;23.50;66.70;;;;;;5043298;28;19912;-68
2021/08/16 06:52:21;;;;;;;;;;;23.50;67.00;;;;;;5042925;28;19917;-64
2021/08/16 06:54:47;;;;;;;;;;;23.50;67.20;;;;;;5043012;28;20367;-67
2021/08/16 06:57:12;;;;;;;;;;;23.50;67.20;;;;;;5039910;28;19931;-68
2021/08/16 06:59:38;;;;;;;;;;;23.50;67.10;;;;;;5023814;28;20020;-70
2021/08/16 07:02:03;;;;;;;;;;;23.40;67.00;;;;;;5042421;28;20298;-69
2021/08/16 07:04:29;;;;;;;;;;;23.50;67.30;;;;;;5042521;28;19974;-67
2021/08/16 07:06:54;;;;;;;;;;;23.50;67.30;;;;;;5043404;28;19913;-70
2021/08/16 07:09:21;;;;;;;;;;;23.50;67.40;;;;;;5042009;28;22846;-69
2021/08/16 07:11:47;;;;;;;;;;;23.50;67.50;;;;;;5042010;28;19920;-64
2021/08/16 07:14:12;;;;;;;;;;;23.50;67.60;;;;;;5042417;28;20153;-69
2021/08/16 07:16:38;;;;;;;;;;;23.50;67.50;;;;;;5041285;28;19923;-69
2021/08/16 07:19:03;;;;;;;;;;;23.50;67.70;;;;;;5040651;28;20352;-67
2021/08/16 07:21:28;;;;;;;;;;;23.50;67.70;;;;;;5040852;28;19917;-68
2021/08/16 07:23:55;;;;;;;;;;;23.50;67.50;;;;;;5040785;28;20420;-65
2021/08/16 07:26:20;;;;;;;;;;;23.60;67.10;;;;;;5041386;28;19917;-68
2021/08/16 07:28:46;;;;;;;;;;;23.60;66.90;;;;;;5041261;28;19974;-68
2021/08/16 07:31:12;;;;;;;;;;;23.60;66.80;;;;;;5042422;28;19994;-69
2021/08/16 07:33:37;;;;;;;;;;;23.60;66.10;;;;;;5041364;28;19921;-67
2021/08/16 07:36:03;;;;;;;;;;;23.60;66.00;;;;;;5041148;28;19942;-68
2021/08/16 07:38:29;;;;;;;;;;;23.70;66.00;;;;;;5041715;28;19913;-67
2021/08/16 07:40:54;;;;;;;;;;;23.70;65.70;;;;;;5041839;28;19913;-64
2021/08/16 07:43:21;;;;;;;;;;;23.70;65.90;;;;;;5040653;28;19924;-69
2021/08/16 07:45:49;;;;;;;;;;;23.70;65.60;;;;;;5040873;28;19917;-69
2021/08/16 07:48:14;;;;;;;;;;;23.70;65.30;;;;;;5038785;28;19917;-67
2021/08/16 07:50:40;;;;;;;;;;;23.70;65.30;;;;;;5041588;28;19917;-64
2021/08/16 07:53:06;;;;;;;;;;;23.80;65.20;;;;;;5039774;28;19974;-68
2021/08/16 07:55:31;;;;;;;;;;;23.70;65.00;;;;;;5040840;28;20331;-68
2021/08/16 07:57:57;;;;;;;;;;;23.70;64.80;;;;;;5040540;28;19927;-68
2021/08/16 08:00:22;;;;;;;;;;;23.70;64.70;;;;;;5041606;28;19923;-68
2021/08/16 08:02:48;;;;;;;;;;;23.80;64.60;;;;;;5041856;28;19964;-64
2021/08/16 08:05:14;;;;;;;;;;;23.70;64.60;;;;;;5041832;28;19912;-67
2021/08/16 08:07:41;;;;;;;;;;;23.80;64.80;;;;;;5042170;28;19956;-66
2021/08/16 08:10:06;;;;;;;;;;;23.70;64.60;;;;;;5041720;28;19924;-63
2021/08/16 08:12:32;;;;;;;;;;;23.80;64.50;;;;;;5041567;28;19917;-67
2021/08/16 08:14:57;;;;;;;;;;;23.70;64.50;;;;;;5041380;28;19943;-63
2021/08/16 08:17:23;;;;;;;;;;;23.80;64.50;;;;;;5040973;28;19943;-64
2021/08/16 08:19:49;;;;;;;;;;;23.80;64.40;;;;;;5041426;28;19913;-65
2021/08/16 08:22:16;;;;;;;;;;;23.80;64.40;;;;;;5039914;28;19921;-68
2021/08/16 08:24:41;;;;;;;;;;;23.80;64.30;;;;;;5041682;28;19913;-68
2021/08/16 08:27:07;;;;;;;;;;;23.80;64.20;;;;;;5040677;28;20002;-64
2021/08/16 08:29:32;;;;;;;;;;;23.80;64.10;;;;;;5040683;28;19927;-68
2021/08/16 08:31:58;;;;;;;;;;;23.70;64.00;;;;;;5040640;28;19913;-68
2021/08/16 08:34:23;;;;;;;;;;;23.70;64.00;;;;;;5041368;28;20379;-69
2021/08/16 08:36:49;;;;;;;;;;;23.80;64.00;;;;;;5041376;28;19963;-69
2021/08/16 08:39:14;;;;;;;;;;;23.70;63.90;;;;;;5041357;28;19917;-69
2021/08/16 08:41:39;;;;;;;;;;;23.80;64.00;;;;;;5041675;28;20638;-68
2021/08/16 08:44:10;;;;;;;;;;;23.80;63.90;;;;;;5041064;28;19938;-64
2021/08/16 08:46:37;;;;;;;;;;;23.80;63.90;;;;;;5041337;28;19917;-68
2021/08/16 08:49:02;;;;;;;;;;;23.80;63.80;;;;;;5039439;28;19912;-67
2021/08/16 08:51:27;;;;;;;;;;;23.80;63.90;;;;;;5041464;28;19973;-68
2021/08/16 08:53:53;;;;;;;;;;;23.80;63.80;;;;;;5041358;28;20444;-66
2021/08/16 08:56:18;;;;;;;;;;;23.80;63.80;;;;;;5040599;28;19943;-68
2021/08/16 08:58:44;;;;;;;;;;;23.80;63.90;;;;;;5039319;28;19921;-67
2021/08/16 09:01:09;;;;;;;;;;;23.80;63.90;;;;;;5041516;28;20525;-66
2021/08/16 09:03:45;;;;;;;;;;;23.70;63.70;;;;;;5041897;28;19916;-68
2021/08/16 09:06:10;;;;;;;;;;;23.80;63.80;;;;;;5044407;28;20672;-69
2021/08/16 09:08:35;;;;;;;;;;;23.80;63.80;;;;;;5043218;28;19917;-68
2021/08/16 09:11:19;;;;;;;;;;;23.80;63.70;;;;;;5044873;28;19916;-68
2021/08/16 09:13:57;;;;;;;;;;;23.80;63.70;;;;;;5044400;28;19917;-65
2021/08/16 09:16:23;;;;;;;;;;;23.80;63.70;;;;;;5045106;28;20463;-64
2021/08/16 09:18:49;;;;;;;;;;;23.80;63.60;;;;;;5045281;28;20015;-68
2021/08/16 09:21:23;;;;;;;;;;;23.80;63.60;;;;;;5046193;28;20307;-67
2021/08/16 09:23:49;;;;;;;;;;;23.80;63.60;;;;;;5046799;28;19952;-68
2021/08/16 09:26:16;;;;;;;;;;;23.80;63.50;;;;;;5046765;28;19924;-68
2021/08/16 09:28:42;;;;;;;;;;;23.80;63.50;;;;;;5045230;28;20299;-69
2021/08/16 09:31:17;;;;;;;;;;;23.80;63.50;;;;;;5044484;28;19913;-66
2021/08/16 09:33:52;;;;;;;;;;;23.80;63.50;;;;;;5024176;28;19920;-65
2021/08/16 09:36:18;;;;;;;;;;;23.80;63.50;;;;;;5027279;28;19971;-68
2021/08/16 09:38:43;;;;;;;;;;;23.70;63.40;;;;;;5024694;28;20145;-68
2021/08/16 09:41:19;;;;;;;;;;;23.80;63.40;;;;;;5024197;28;19921;-66
2021/08/16 09:43:44;;;;;;;;;;;23.80;63.40;;;;;;5037134;28;20418;-67
2021/08/16 09:46:13;;;;;;;;;;;23.80;63.40;;;;;;5044395;28;20292;-69
2021/08/16 09:48:38;;;;;;;;;;;23.80;63.30;;;;;;5042014;28;19913;-68
2021/08/16 09:51:04;;;;;;;;;;;23.80;63.30;;;;;;5044403;28;20630;-67
2021/08/16 09:53:30;;;;;;;;;;;23.80;63.30;;;;;;5043849;28;19912;-62
2021/08/16 09:56:02;;;;;;;;;;;23.80;63.30;;;;;;5043460;28;20839;-69
2021/08/16 09:58:27;;;;;;;;;;;23.80;63.30;;;;;;5042274;28;20011;-68
2021/08/16 10:00:53;;;;;;;;;;;23.80;63.30;;;;;;5043803;28;20590;-64
2021/08/16 10:03:18;;;;;;;;;;;23.80;63.30;;;;;;5043140;28;19931;-68
2021/08/16 10:05:45;;;;;;;;;;;23.80;63.30;;;;;;5043838;28;19944;-68
2021/08/16 10:08:11;;;;;;;;;;;23.80;63.30;;;;;;5043104;28;20008;-68
2021/08/16 10:10:37;;;;;;;;;;;23.80;63.20;;;;;;5043548;28;19948;-67
2021/08/16 10:13:03;;;;;;;;;;;23.80;63.10;;;;;;5043620;28;19960;-69
2021/08/16 10:15:29;;;;;;;;;;;23.80;63.10;;;;;;5042971;28;20087;-68
2021/08/16 10:17:54;;;;;;;;;;;23.80;63.10;;;;;;5043613;28;20497;-67
2021/08/16 10:20:20;;;;;;;;;;;23.80;63.10;;;;;;5042654;28;20373;-69
2021/08/16 10:22:45;;;;;;;;;;;23.80;63.10;;;;;;5042538;28;19935;-69
2021/08/16 10:25:17;;;;;;;;;;;23.80;63.10;;;;;;5042985;28;19919;-68
2021/08/16 10:27:43;;;;;;;;;;;23.80;63.00;;;;;;5043368;28;20279;-69
2021/08/16 10:30:12;;;;;;;;;;;23.80;63.00;;;;;;5044179;28;19917;-65
2021/08/16 10:32:38;;;;;;;;;;;23.80;63.00;;;;;;5043922;28;20359;-69
2021/08/16 10:35:06;;;;;;;;;;;23.80;62.90;;;;;;5044768;28;19956;-68
2021/08/16 10:37:35;;;;;;;;;;;23.80;62.90;;;;;;5044583;28;20399;-65
2021/08/16 10:40:01;;;;;;;;;;;23.80;62.90;;;;;;5043453;28;19920;-66
2021/08/16 10:42:33;;;;;;;;;;;23.80;62.90;;;;;;5043009;28;19917;-67
2021/08/16 10:45:02;;;;;;;;;;;23.80;62.90;;;;;;5043299;28;19923;-67
2021/08/16 10:47:29;;;;;;;;;;;23.80;62.90;;;;;;5043298;28;19921;-68
2021/08/16 10:50:04;;;;;;;;;;;23.80;62.90;;;;;;5042520;28;19924;-69
2021/08/16 10:52:30;;;;;;;;;;;23.80;62.90;;;;;;5042958;28;19928;-65
2021/08/16 10:55:05;;;;;;;;;;;23.80;62.90;;;;;;5042968;28;19921;-68
2021/08/16 10:57:33;;;;;;;;;;;23.80;62.80;;;;;;5042731;28;20007;-63
2021/08/16 10:59:58;;;;;;;;;;;23.80;62.80;;;;;;5036829;28;19946;-68
2021/08/16 11:02:24;;;;;;;;;;;23.80;62.70;;;;;;5040285;28;19917;-66
2021/08/16 11:04:50;;;;;;;;;;;23.80;62.60;;;;;;5041120;28;19925;-68
2021/08/16 11:07:20;;;;;;;;;;;23.80;62.60;;;;;;5042646;28;19921;-70
2021/08/16 11:09:53;;;;;;;;;;;23.80;62.60;;;;;;5042322;28;19928;-68
2021/08/16 11:12:19;;;;;;;;;;;23.80;62.60;;;;;;5041187;28;19912;-68
2021/08/16 11:14:48;;;;;;;;;;;23.80;62.50;;;;;;5042548;28;19917;-68
2021/08/16 11:17:14;;;;;;;;;;;23.80;62.50;;;;;;5042180;28;19951;-64
2021/08/16 11:19:43;;;;;;;;;;;23.80;62.50;;;;;;5042086;28;19917;-68
2021/08/16 11:22:08;;;;;;;;;;;23.80;62.50;;;;;;5041759;28;19979;-68
2021/08/16 11:24:35;;;;;;;;;;;23.80;62.40;;;;;;5041804;28;19913;-69
2021/08/16 11:27:01;;;;;;;;;;;23.80;62.40;;;;;;5041558;28;19921;-68
2021/08/16 11:29:26;;;;;;;;;;;23.80;62.30;;;;;;5041908;28;20007;-64
2021/08/16 11:31:58;;;;;;;;;;;23.80;62.30;;;;;;5041900;28;19912;-65
2021/08/16 11:34:27;;;;;;;;;;;23.80;62.30;;;;;;5022294;28;19921;-69
2021/08/16 11:36:53;;;;;;;;;;;23.80;62.30;;;;;;5022114;28;19913;-68
2021/08/16 11:39:33;;;;;;;;;;;23.80;62.30;;;;;;5021349;28;19917;-67
2021/08/16 11:41:59;;;;;;;;;;;23.80;62.20;;;;;;5021909;28;19932;-68
2021/08/16 11:44:25;;;;;;;;;;;23.80;62.20;;;;;;5036840;28;19917;-69
2021/08/16 11:46:51;;;;;;;;;;;23.90;62.30;;;;;;5041367;28;19917;-66
2021/08/16 11:49:16;;;;;;;;;;;23.90;62.20;;;;;;5042066;28;20003;-67
2021/08/16 11:51:43;;;;;;;;;;;23.80;62.20;;;;;;5041065;28;19913;-69
2021/08/16 11:54:08;;;;;;;;;;;23.80;62.20;;;;;;5042062;28;19917;-66
2021/08/16 11:56:34;;;;;;;;;;;23.80;62.20;;;;;;5026138;28;19937;-68
2021/08/16 11:58:59;;;;;;;;;;;23.80;62.20;;;;;;5032355;28;20361;-65
2021/08/16 12:01:25;;;;;;;;;;;23.80;62.10;;;;;;5034704;28;20309;-69
2021/08/16 12:03:50;;;;;;;;;;;23.90;62.20;;;;;;5033261;28;19913;-64
2021/08/16 12:06:16;;;;;;;;;;;23.90;62.10;;;;;;5039501;28;19913;-67
2021/08/16 12:08:41;;;;;;;;;;;23.90;62.10;;;;;;5022701;28;19913;-68
2021/08/16 12:11:10;;;;;;;;;;;23.90;62.10;;;;;;5031178;28;19928;-69
2021/08/16 12:13:36;;;;;;;;;;;23.80;61.90;;;;;;5040107;28;20008;-63
2021/08/16 12:16:01;;;;;;;;;;;23.90;61.80;;;;;;5026884;28;19913;-69
2021/08/16 12:18:28;;;;;;;;;;;23.90;61.60;;;;;;5037419;28;19917;-65
2021/08/16 12:20:54;;;;;;;;;;;23.90;61.80;;;;;;5040844;28;19924;-69
2021/08/16 12:23:29;;;;;;;;;;;23.80;61.60;;;;;;5036370;28;20449;-69
2021/08/16 12:25:55;;;;;;;;;;;23.90;61.40;;;;;;5020619;28;19918;-69
2021/08/16 12:28:20;;;;;;;;;;;23.90;61.30;;;;;;5028331;28;19919;-69
2021/08/16 12:30:47;;;;;;;;;;;23.90;62.10;;;;;;5041823;28;20260;-68
2021/08/16 12:33:13;;;;;;;;;;;23.90;61.50;;;;;;5042421;28;19913;-68
2021/08/16 12:35:38;;;;;;;;;;;23.90;61.60;;;;;;5025862;28;19913;-68
2021/08/16 12:38:04;;;;;;;;;;;23.90;61.60;;;;;;5023468;28;19913;-69
2021/08/16 12:40:29;;;;;;;;;;;23.90;61.20;;;;;;5025254;28;19913;-65
2021/08/16 12:43:04;;;;;;;;;;;23.90;61.00;;;;;;5039066;28;19996;-67
2021/08/16 12:45:30;;;;;;;;;;;23.90;61.40;;;;;;5031357;28;19991;-69
2021/08/16 12:47:59;;;;;;;;;;;23.90;61.00;;;;;;5025493;28;20154;-70
2021/08/16 12:50:25;;;;;;;;;;;23.90;61.10;;;;;;5025551;28;20078;-69
2021/08/16 12:52:50;;;;;;;;;;;23.90;60.60;;;;;;5033716;28;19917;-70
2021/08/16 12:55:15;;;;;;;;;;;23.90;60.80;;;;;;5027118;28;19917;-68
2021/08/16 12:57:41;;;;;;;;;;;23.90;60.40;;;;;;5042922;28;20117;-68
2021/08/16 13:00:07;;;;;;;;;;;23.90;60.20;;;;;;5044380;28;19927;-68
2021/08/16 13:02:32;;;;;;;;;;;23.90;59.90;;;;;;5044064;28;20387;-63
2021/08/16 13:04:59;;;;;;;;;;;23.90;60.50;;;;;;5044060;28;19916;-66
2021/08/16 13:07:25;;;;;;;;;;;23.90;60.30;;;;;;5044241;28;19927;-70
2021/08/16 13:09:50;;;;;;;;;;;23.90;60.30;;;;;;5044326;28;19921;-69
2021/08/16 13:12:15;;;;;;;;;;;23.90;60.40;;;;;;5044009;28;19921;-68
2021/08/16 13:14:41;;;;;;;;;;;23.90;60.40;;;;;;5044062;28;19986;-68
2021/08/16 13:17:06;;;;;;;;;;;23.90;60.40;;;;;;5044260;28;19928;-68
2021/08/16 13:19:32;;;;;;;;;;;23.90;60.40;;;;;;5043824;28;20340;-65
2021/08/16 13:21:58;;;;;;;;;;;23.90;60.40;;;;;;5044168;28;19921;-64
2021/08/16 13:24:24;;;;;;;;;;;23.90;60.30;;;;;;5042862;28;19916;-69
2021/08/16 13:26:49;;;;;;;;;;;23.90;59.90;;;;;;5044369;28;19923;-69
2021/08/16 13:29:15;;;;;;;;;;;23.90;59.80;;;;;;5043936;28;19956;-68
2021/08/16 13:31:40;;;;;;;;;;;23.90;59.70;;;;;;5044473;28;19920;-69
2021/08/16 13:34:06;;;;;;;;;;;23.90;59.70;;;;;;5044104;28;20395;-69
2021/08/16 13:36:31;;;;;;;;;;;23.90;59.70;;;;;;5043705;28;19913;-65
2021/08/16 13:38:57;;;;;;;;;;;23.90;59.70;;;;;;5043597;28;20426;-69
2021/08/16 13:41:22;;;;;;;;;;;23.90;59.70;;;;;;5044067;28;20345;-67
2021/08/16 13:43:48;;;;;;;;;;;23.90;59.60;;;;;;5044312;28;19970;-68
2021/08/16 13:46:13;;;;;;;;;;;23.90;59.50;;;;;;5045091;28;19913;-68
2021/08/16 13:48:38;;;;;;;;;;;23.90;59.60;;;;;;5042623;28;19948;-69
2021/08/16 13:51:05;;;;;;;;;;;23.90;59.00;;;;;;5043960;28;20365;-65
2021/08/16 13:53:31;;;;;;;;;;;23.90;58.90;;;;;;5043567;28;20102;-68
2021/08/16 13:55:57;;;;;;;;;;;23.90;58.70;;;;;;5043344;28;19913;-67
2021/08/16 13:58:22;;;;;;;;;;;23.90;58.20;;;;;;5028602;28;20718;-64
2021/08/16 14:00:48;;;;;;;;;;;23.90;58.30;;;;;;5023461;28;19917;-70
2021/08/16 14:03:14;;;;;;;;;;;23.90;58.40;;;;;;5023534;28;20324;-69
2021/08/16 14:05:39;;;;;;;;;;;23.90;58.10;;;;;;5023555;28;19917;-69
2021/08/16 14:08:04;;;;;;;;;;;23.90;58.30;;;;;;5022754;28;19924;-64
2021/08/16 14:10:30;;;;;;;;;;;23.90;58.10;;;;;;5023595;28;19972;-68